sensor_id;sensor_type;location;lat;lon;timestamp;P1;durP1;ratioP1;P2;durP2;ratioP2
27706;SDS011;36332;51.384;0.040;2022-09-09T00:00:40;26.83;;;4.85;;
27706;SDS011;36332;51.384;0.040;2022-09-09T00:03:17;18.45;;;4.28;;
27706;SDS011;36332;51.384;0.040;2022-09-09T00:08:25;20.67;;;3.78;;
27706;SDS011;36332;51.384;0.040;2022-09-09T00:11:04;15.63;;;3.05;;
27706;SDS011;36332;51.384;0.040;2022-09-09T00:13:37;15.80;;;3.83;;
27706;SDS011;36332;51.384;0.040;2022-09-09T00:16:12;14.77;;;3.38;;
27706;SDS011;36332;51.384;0.040;2022-09-09T00:18:50;19.05;;;3.80;;
27706;SDS011;36332;51.384;0.040;2022-09-09T00:21:22;18.35;;;4.03;;
27706;SDS011;36332;51.384;0.040;2022-09-09T00:23:56;13.85;;;2.97;;
27706;SDS011;36332;51.384;0.040;2022-09-09T00:26:34;12.70;;;3.45;;
27706;SDS011;36332;51.384;0.040;2022-09-09T00:29:12;24.05;;;4.72;;
27706;SDS011;36332;51.384;0.040;2022-09-09T00:32:14;22.08;;;4.85;;
27706;SDS011;36332;51.384;0.040;2022-09-09T00:34:55;23.85;;;4.30;;
27706;SDS011;36332;51.384;0.040;2022-09-09T00:37:23;27.10;;;4.88;;
27706;SDS011;36332;51.384;0.040;2022-09-09T00:39:53;20.65;;;4.07;;
27706;SDS011;36332;51.384;0.040;2022-09-09T00:42:31;19.50;;;4.38;;
27706;SDS011;36332;51.384;0.040;2022-09-09T00:45:15;23.10;;;5.22;;
27706;SDS011;36332;51.384;0.040;2022-09-09T00:47:52;12.13;;;4.30;;
27706;SDS011;36332;51.384;0.040;2022-09-09T00:53:34;24.50;;;4.60;;
27706;SDS011;36332;51.384;0.040;2022-09-09T00:56:16;21.08;;;5.15;;
27706;SDS011;36332;51.384;0.040;2022-09-09T01:01:39;21.17;;;4.70;;
27706;SDS011;36332;51.384;0.040;2022-09-09T01:04:09;16.38;;;4.80;;
27706;SDS011;36332;51.384;0.040;2022-09-09T01:06:43;15.82;;;4.88;;
27706;SDS011;36332;51.384;0.040;2022-09-09T01:12:23;23.98;;;6.35;;
27706;SDS011;36332;51.384;0.040;2022-09-09T01:15:12;18.95;;;5.90;;
27706;SDS011;36332;51.384;0.040;2022-09-09T01:17:53;18.13;;;4.95;;
27706;SDS011;36332;51.384;0.040;2022-09-09T01:26:51;25.38;;;6.03;;
27706;SDS011;36332;51.384;0.040;2022-09-09T01:29:25;24.07;;;5.70;;
27706;SDS011;36332;51.384;0.040;2022-09-09T01:31:54;25.38;;;6.15;;
27706;SDS011;36332;51.384;0.040;2022-09-09T01:34:35;19.00;;;5.82;;
27706;SDS011;36332;51.384;0.040;2022-09-09T01:37:07;21.83;;;5.60;;
27706;SDS011;36332;51.384;0.040;2022-09-09T01:39:38;17.90;;;4.90;;
27706;SDS011;36332;51.384;0.040;2022-09-09T01:42:12;25.83;;;5.38;;
27706;SDS011;36332;51.384;0.040;2022-09-09T01:44:42;28.33;;;5.07;;
27706;SDS011;36332;51.384;0.040;2022-09-09T01:47:09;25.90;;;5.78;;
27706;SDS011;36332;51.384;0.040;2022-09-09T01:50:02;20.02;;;6.32;;
27706;SDS011;36332;51.384;0.040;2022-09-09T01:52:30;29.40;;;8.27;;
27706;SDS011;36332;51.384;0.040;2022-09-09T01:55:01;20.30;;;7.18;;
27706;SDS011;36332;51.384;0.040;2022-09-09T01:58:23;25.58;;;6.95;;
27706;SDS011;36332;51.384;0.040;2022-09-09T02:00:28;20.50;;;5.97;;
27706;SDS011;36332;51.384;0.040;2022-09-09T02:13:39;20.48;;;6.68;;
27706;SDS011;36332;51.384;0.040;2022-09-09T02:21:45;13.82;;;4.32;;
27706;SDS011;36332;51.384;0.040;2022-09-09T02:24:14;30.17;;;4.82;;
27706;SDS011;36332;51.384;0.040;2022-09-09T02:26:52;18.23;;;4.32;;
27706;SDS011;36332;51.384;0.040;2022-09-09T02:29:24;23.60;;;5.13;;
27706;SDS011;36332;51.384;0.040;2022-09-09T02:31:59;17.75;;;3.55;;
27706;SDS011;36332;51.384;0.040;2022-09-09T02:34:34;20.98;;;3.95;;
27706;SDS011;36332;51.384;0.040;2022-09-09T02:37:06;16.20;;;3.63;;
27706;SDS011;36332;51.384;0.040;2022-09-09T02:39:38;17.77;;;3.75;;
27706;SDS011;36332;51.384;0.040;2022-09-09T02:42:10;21.10;;;4.15;;
27706;SDS011;36332;51.384;0.040;2022-09-09T02:44:37;17.60;;;3.90;;
27706;SDS011;36332;51.384;0.040;2022-09-09T02:50:12;23.80;;;4.68;;
27706;SDS011;36332;51.384;0.040;2022-09-09T02:53:17;10.52;;;3.42;;
27706;SDS011;36332;51.384;0.040;2022-09-09T02:58:17;22.15;;;5.18;;
27706;SDS011;36332;51.384;0.040;2022-09-09T03:00:55;28.63;;;5.97;;
27706;SDS011;36332;51.384;0.040;2022-09-09T03:03:25;19.23;;;6.05;;
27706;SDS011;36332;51.384;0.040;2022-09-09T03:05:55;27.13;;;5.95;;
27706;SDS011;36332;51.384;0.040;2022-09-09T03:08:25;46.83;;;6.85;;
27706;SDS011;36332;51.384;0.040;2022-09-09T03:10:55;31.35;;;5.47;;
27706;SDS011;36332;51.384;0.040;2022-09-09T03:13:27;23.15;;;6.10;;
27706;SDS011;36332;51.384;0.040;2022-09-09T03:15:55;20.13;;;5.80;;
27706;SDS011;36332;51.384;0.040;2022-09-09T03:18:22;21.02;;;5.25;;
27706;SDS011;36332;51.384;0.040;2022-09-09T03:20:53;24.88;;;6.95;;
27706;SDS011;36332;51.384;0.040;2022-09-09T03:23:21;30.23;;;5.47;;
27706;SDS011;36332;51.384;0.040;2022-09-09T03:25:50;21.98;;;6.60;;
27706;SDS011;36332;51.384;0.040;2022-09-09T03:28:25;23.45;;;5.85;;
27706;SDS011;36332;51.384;0.040;2022-09-09T03:31:00;29.77;;;6.80;;
27706;SDS011;36332;51.384;0.040;2022-09-09T03:33:33;21.27;;;5.72;;
27706;SDS011;36332;51.384;0.040;2022-09-09T03:36:03;19.88;;;5.70;;
27706;SDS011;36332;51.384;0.040;2022-09-09T03:38:32;16.90;;;5.68;;
27706;SDS011;36332;51.384;0.040;2022-09-09T03:41:00;22.60;;;5.28;;
27706;SDS011;36332;51.384;0.040;2022-09-09T03:43:29;25.52;;;6.68;;
27706;SDS011;36332;51.384;0.040;2022-09-09T03:45:58;19.52;;;7.05;;
27706;SDS011;36332;51.384;0.040;2022-09-09T03:48:26;22.20;;;6.78;;
27706;SDS011;36332;51.384;0.040;2022-09-09T03:50:56;18.70;;;6.53;;
27706;SDS011;36332;51.384;0.040;2022-09-09T03:53:25;19.70;;;7.30;;
27706;SDS011;36332;51.384;0.040;2022-09-09T03:55:54;22.40;;;7.93;;
27706;SDS011;36332;51.384;0.040;2022-09-09T03:58:25;21.25;;;5.55;;
27706;SDS011;36332;51.384;0.040;2022-09-09T04:01:03;27.65;;;6.85;;
27706;SDS011;36332;51.384;0.040;2022-09-09T04:03:42;17.58;;;6.18;;
27706;SDS011;36332;51.384;0.040;2022-09-09T04:06:12;15.55;;;6.85;;
27706;SDS011;36332;51.384;0.040;2022-09-09T04:08:44;20.33;;;6.43;;
27706;SDS011;36332;51.384;0.040;2022-09-09T04:11:14;36.67;;;7.93;;
27706;SDS011;36332;51.384;0.040;2022-09-09T04:13:44;20.90;;;6.03;;
27706;SDS011;36332;51.384;0.040;2022-09-09T04:16:12;21.70;;;7.45;;
27706;SDS011;36332;51.384;0.040;2022-09-09T04:18:42;24.58;;;6.80;;
27706;SDS011;36332;51.384;0.040;2022-09-09T04:21:11;28.13;;;7.38;;
27706;SDS011;36332;51.384;0.040;2022-09-09T04:23:40;25.10;;;7.30;;
27706;SDS011;36332;51.384;0.040;2022-09-09T04:26:08;10.88;;;6.35;;
27706;SDS011;36332;51.384;0.040;2022-09-09T04:28:37;21.48;;;7.95;;
27706;SDS011;36332;51.384;0.040;2022-09-09T04:31:15;22.38;;;7.78;;
27706;SDS011;36332;51.384;0.040;2022-09-09T04:33:46;24.15;;;8.65;;
27706;SDS011;36332;51.384;0.040;2022-09-09T04:36:15;24.17;;;6.72;;
27706;SDS011;36332;51.384;0.040;2022-09-09T04:38:46;17.67;;;7.85;;
27706;SDS011;36332;51.384;0.040;2022-09-09T04:41:17;22.83;;;7.05;;
27706;SDS011;36332;51.384;0.040;2022-09-09T04:43:48;19.92;;;7.32;;
27706;SDS011;36332;51.384;0.040;2022-09-09T04:46:16;18.95;;;7.30;;
27706;SDS011;36332;51.384;0.040;2022-09-09T04:48:47;28.15;;;7.60;;
27706;SDS011;36332;51.384;0.040;2022-09-09T04:51:17;25.48;;;7.45;;
27706;SDS011;36332;51.384;0.040;2022-09-09T04:53:47;19.85;;;7.30;;
27706;SDS011;36332;51.384;0.040;2022-09-09T04:56:17;14.35;;;6.82;;
27706;SDS011;36332;51.384;0.040;2022-09-09T04:58:54;21.83;;;6.85;;
27706;SDS011;36332;51.384;0.040;2022-09-09T05:01:32;25.40;;;8.05;;
27706;SDS011;36332;51.384;0.040;2022-09-09T05:04:03;23.20;;;7.20;;
27706;SDS011;36332;51.384;0.040;2022-09-09T05:06:33;17.17;;;8.13;;
27706;SDS011;36332;51.384;0.040;2022-09-09T05:09:03;17.45;;;6.15;;
27706;SDS011;36332;51.384;0.040;2022-09-09T05:11:31;23.15;;;6.95;;
27706;SDS011;36332;51.384;0.040;2022-09-09T05:14:17;19.92;;;7.60;;
27706;SDS011;36332;51.384;0.040;2022-09-09T05:16:45;18.00;;;6.97;;
27706;SDS011;36332;51.384;0.040;2022-09-09T05:19:14;23.35;;;7.72;;
27706;SDS011;36332;51.384;0.040;2022-09-09T05:21:49;18.10;;;8.68;;
27706;SDS011;36332;51.384;0.040;2022-09-09T05:24:23;24.90;;;7.93;;
27706;SDS011;36332;51.384;0.040;2022-09-09T05:26:54;19.75;;;7.97;;
27706;SDS011;36332;51.384;0.040;2022-09-09T05:29:25;20.13;;;8.30;;
27706;SDS011;36332;51.384;0.040;2022-09-09T05:31:55;17.88;;;8.43;;
27706;SDS011;36332;51.384;0.040;2022-09-09T05:34:24;33.22;;;8.93;;
27706;SDS011;36332;51.384;0.040;2022-09-09T05:36:52;27.42;;;9.88;;
27706;SDS011;36332;51.384;0.040;2022-09-09T05:39:22;21.05;;;8.60;;
27706;SDS011;36332;51.384;0.040;2022-09-09T05:41:50;23.23;;;10.00;;
27706;SDS011;36332;51.384;0.040;2022-09-09T05:44:18;23.48;;;10.48;;
27706;SDS011;36332;51.384;0.040;2022-09-09T05:46:46;25.02;;;11.35;;
27706;SDS011;36332;51.384;0.040;2022-09-09T05:49:14;29.00;;;10.98;;
27706;SDS011;36332;51.384;0.040;2022-09-09T05:51:43;23.48;;;10.63;;
27706;SDS011;36332;51.384;0.040;2022-09-09T05:54:13;45.35;;;13.55;;
27706;SDS011;36332;51.384;0.040;2022-09-09T05:56:46;25.23;;;11.75;;
27706;SDS011;36332;51.384;0.040;2022-09-09T05:59:18;30.38;;;11.52;;
27706;SDS011;36332;51.384;0.040;2022-09-09T06:01:46;25.88;;;10.55;;
27706;SDS011;36332;51.384;0.040;2022-09-09T06:04:22;27.15;;;11.38;;
27706;SDS011;36332;51.384;0.040;2022-09-09T06:06:52;29.15;;;12.45;;
27706;SDS011;36332;51.384;0.040;2022-09-09T06:09:22;25.98;;;10.65;;
27706;SDS011;36332;51.384;0.040;2022-09-09T06:11:49;32.03;;;11.32;;
27706;SDS011;36332;51.384;0.040;2022-09-09T06:14:18;26.92;;;10.45;;
27706;SDS011;36332;51.384;0.040;2022-09-09T06:16:48;33.55;;;11.68;;
27706;SDS011;36332;51.384;0.040;2022-09-09T06:19:20;22.83;;;11.75;;
27706;SDS011;36332;51.384;0.040;2022-09-09T06:21:48;25.27;;;11.23;;
27706;SDS011;36332;51.384;0.040;2022-09-09T06:24:17;28.98;;;12.18;;
27706;SDS011;36332;51.384;0.040;2022-09-09T06:26:46;28.17;;;12.27;;
27706;SDS011;36332;51.384;0.040;2022-09-09T06:29:20;32.38;;;11.68;;
27706;SDS011;36332;51.384;0.040;2022-09-09T06:31:48;30.20;;;12.43;;
27706;SDS011;36332;51.384;0.040;2022-09-09T06:34:20;26.67;;;11.60;;
27706;SDS011;36332;51.384;0.040;2022-09-09T06:36:52;27.55;;;12.23;;
27706;SDS011;36332;51.384;0.040;2022-09-09T06:39:20;27.35;;;11.63;;
27706;SDS011;36332;51.384;0.040;2022-09-09T06:41:48;22.95;;;12.13;;
27706;SDS011;36332;51.384;0.040;2022-09-09T06:44:35;32.45;;;12.52;;
27706;SDS011;36332;51.384;0.040;2022-09-09T06:47:06;31.55;;;11.80;;
27706;SDS011;36332;51.384;0.040;2022-09-09T06:49:34;28.45;;;10.60;;
27706;SDS011;36332;51.384;0.040;2022-09-09T06:52:05;22.02;;;10.55;;
27706;SDS011;36332;51.384;0.040;2022-09-09T06:54:33;23.02;;;10.90;;
27706;SDS011;36332;51.384;0.040;2022-09-09T06:57:05;22.88;;;10.45;;
27706;SDS011;36332;51.384;0.040;2022-09-09T06:59:55;20.27;;;8.35;;
27706;SDS011;36332;51.384;0.040;2022-09-09T07:02:22;25.42;;;9.70;;
27706;SDS011;36332;51.384;0.040;2022-09-09T07:04:51;21.23;;;9.32;;
27706;SDS011;36332;51.384;0.040;2022-09-09T07:07:19;20.77;;;8.73;;
27706;SDS011;36332;51.384;0.040;2022-09-09T07:09:47;20.30;;;9.70;;
27706;SDS011;36332;51.384;0.040;2022-09-09T07:12:16;19.08;;;8.70;;
27706;SDS011;36332;51.384;0.040;2022-09-09T07:14:51;20.95;;;9.85;;
27706;SDS011;36332;51.384;0.040;2022-09-09T07:17:20;20.60;;;8.02;;
27706;SDS011;36332;51.384;0.040;2022-09-09T07:19:48;25.08;;;8.02;;
27706;SDS011;36332;51.384;0.040;2022-09-09T07:22:16;16.95;;;7.65;;
27706;SDS011;36332;51.384;0.040;2022-09-09T07:24:45;25.33;;;9.48;;
27706;SDS011;36332;51.384;0.040;2022-09-09T07:27:14;22.80;;;8.05;;
27706;SDS011;36332;51.384;0.040;2022-09-09T07:29:42;14.40;;;7.38;;
27706;SDS011;36332;51.384;0.040;2022-09-09T07:32:10;23.50;;;8.05;;
27706;SDS011;36332;51.384;0.040;2022-09-09T07:34:38;20.30;;;8.48;;
27706;SDS011;36332;51.384;0.040;2022-09-09T07:37:05;17.23;;;7.80;;
27706;SDS011;36332;51.384;0.040;2022-09-09T07:39:35;17.02;;;7.45;;
27706;SDS011;36332;51.384;0.040;2022-09-09T07:42:02;17.90;;;8.50;;
27706;SDS011;36332;51.384;0.040;2022-09-09T07:44:32;23.33;;;9.02;;
27706;SDS011;36332;51.384;0.040;2022-09-09T07:47:10;19.38;;;8.32;;
27706;SDS011;36332;51.384;0.040;2022-09-09T07:49:42;23.77;;;8.73;;
27706;SDS011;36332;51.384;0.040;2022-09-09T07:52:10;15.02;;;6.85;;
27706;SDS011;36332;51.384;0.040;2022-09-09T07:54:45;16.85;;;7.60;;
27706;SDS011;36332;51.384;0.040;2022-09-09T07:57:13;22.42;;;8.30;;
27706;SDS011;36332;51.384;0.040;2022-09-09T07:59:42;22.83;;;9.57;;
27706;SDS011;36332;51.384;0.040;2022-09-09T08:02:11;17.92;;;8.57;;
27706;SDS011;36332;51.384;0.040;2022-09-09T08:04:39;16.58;;;7.80;;
27706;SDS011;36332;51.384;0.040;2022-09-09T08:07:07;19.95;;;9.00;;
27706;SDS011;36332;51.384;0.040;2022-09-09T08:09:42;20.58;;;7.50;;
27706;SDS011;36332;51.384;0.040;2022-09-09T08:12:17;15.05;;;8.68;;
27706;SDS011;36332;51.384;0.040;2022-09-09T08:14:45;18.63;;;8.57;;
27706;SDS011;36332;51.384;0.040;2022-09-09T08:17:12;13.05;;;7.32;;
27706;SDS011;36332;51.384;0.040;2022-09-09T08:19:41;14.98;;;6.57;;
27706;SDS011;36332;51.384;0.040;2022-09-09T08:22:14;15.27;;;7.45;;
27706;SDS011;36332;51.384;0.040;2022-09-09T08:24:41;13.60;;;7.85;;
27706;SDS011;36332;51.384;0.040;2022-09-09T08:27:09;20.35;;;7.60;;
27706;SDS011;36332;51.384;0.040;2022-09-09T08:29:38;14.20;;;7.20;;
27706;SDS011;36332;51.384;0.040;2022-09-09T08:32:06;12.43;;;6.40;;
27706;SDS011;36332;51.384;0.040;2022-09-09T08:34:35;13.10;;;6.70;;
27706;SDS011;36332;51.384;0.040;2022-09-09T08:37:11;12.80;;;6.70;;
27706;SDS011;36332;51.384;0.040;2022-09-09T08:39:40;12.88;;;6.00;;
27706;SDS011;36332;51.384;0.040;2022-09-09T08:50:44;12.80;;;6.45;;
27706;SDS011;36332;51.384;0.040;2022-09-09T08:53:22;14.73;;;7.20;;
27706;SDS011;36332;51.384;0.040;2022-09-09T08:55:57;16.75;;;6.90;;
27706;SDS011;36332;51.384;0.040;2022-09-09T08:58:46;8.07;;;6.18;;
27706;SDS011;36332;51.384;0.040;2022-09-09T09:01:40;9.88;;;5.97;;
27706;SDS011;36332;51.384;0.040;2022-09-09T09:04:44;11.98;;;7.07;;
27706;SDS011;36332;51.384;0.040;2022-09-09T09:07:26;13.38;;;6.68;;
27706;SDS011;36332;51.384;0.040;2022-09-09T09:10:12;12.70;;;7.15;;
27706;SDS011;36332;51.384;0.040;2022-09-09T09:18:50;15.45;;;6.88;;
27706;SDS011;36332;51.384;0.040;2022-09-09T09:21:34;13.40;;;6.55;;
27706;SDS011;36332;51.384;0.040;2022-09-09T09:24:27;10.98;;;6.15;;
27706;SDS011;36332;51.384;0.040;2022-09-09T09:27:31;12.27;;;7.97;;
27706;SDS011;36332;51.384;0.040;2022-09-09T09:30:06;10.52;;;7.55;;
27706;SDS011;36332;51.384;0.040;2022-09-09T09:33:17;11.30;;;8.25;;
27706;SDS011;36332;51.384;0.040;2022-09-09T09:35:50;13.98;;;7.13;;
27706;SDS011;36332;51.384;0.040;2022-09-09T09:38:22;14.30;;;8.10;;
27706;SDS011;36332;51.384;0.040;2022-09-09T09:41:11;10.95;;;6.90;;
27706;SDS011;36332;51.384;0.040;2022-09-09T09:43:40;12.32;;;9.05;;
27706;SDS011;36332;51.384;0.040;2022-09-09T09:46:18;11.93;;;7.90;;
27706;SDS011;36332;51.384;0.040;2022-09-09T09:48:59;13.02;;;8.45;;
27706;SDS011;36332;51.384;0.040;2022-09-09T09:51:29;14.95;;;9.05;;
27706;SDS011;36332;51.384;0.040;2022-09-09T09:56:41;17.27;;;10.40;;
27706;SDS011;36332;51.384;0.040;2022-09-09T09:59:23;16.13;;;9.50;;
27706;SDS011;36332;51.384;0.040;2022-09-09T10:02:20;15.60;;;10.68;;
27706;SDS011;36332;51.384;0.040;2022-09-09T10:05:08;22.95;;;12.02;;
27706;SDS011;36332;51.384;0.040;2022-09-09T10:07:45;19.42;;;11.00;;
27706;SDS011;36332;51.384;0.040;2022-09-09T10:10:20;21.10;;;11.43;;
27706;SDS011;36332;51.384;0.040;2022-09-09T10:32:06;25.27;;;13.57;;
27706;SDS011;36332;51.384;0.040;2022-09-09T10:40:02;24.83;;;11.95;;
27706;SDS011;36332;51.384;0.040;2022-09-09T10:42:42;18.92;;;12.52;;
27706;SDS011;36332;51.384;0.040;2022-09-09T10:45:15;17.83;;;11.93;;
27706;SDS011;36332;51.384;0.040;2022-09-09T10:50:48;24.08;;;12.75;;
27706;SDS011;36332;51.384;0.040;2022-09-09T10:53:36;19.30;;;12.43;;
27706;SDS011;36332;51.384;0.040;2022-09-09T10:58:36;20.80;;;12.70;;
27706;SDS011;36332;51.384;0.040;2022-09-09T11:04:17;19.17;;;10.63;;
27706;SDS011;36332;51.384;0.040;2022-09-09T11:07:00;20.42;;;11.43;;
27706;SDS011;36332;51.384;0.040;2022-09-09T11:09:39;18.08;;;9.40;;
27706;SDS011;36332;51.384;0.040;2022-09-09T11:12:13;19.83;;;11.05;;
27706;SDS011;36332;51.384;0.040;2022-09-09T11:15:04;20.05;;;10.65;;
27706;SDS011;36332;51.384;0.040;2022-09-09T11:17:40;16.95;;;10.90;;
27706;SDS011;36332;51.384;0.040;2022-09-09T11:20:22;16.48;;;10.95;;
27706;SDS011;36332;51.384;0.040;2022-09-09T11:22:54;20.63;;;11.88;;
27706;SDS011;36332;51.384;0.040;2022-09-09T11:25:36;15.25;;;10.45;;
27706;SDS011;36332;51.384;0.040;2022-09-09T11:31:03;16.80;;;10.38;;
27706;SDS011;36332;51.384;0.040;2022-09-09T11:44:40;11.02;;;5.32;;
27706;SDS011;36332;51.384;0.040;2022-09-09T11:47:23;4.75;;;3.33;;
27706;SDS011;36332;51.384;0.040;2022-09-09T11:50:27;7.85;;;4.00;;
27706;SDS011;36332;51.384;0.040;2022-09-09T11:55:41;8.45;;;4.72;;
27706;SDS011;36332;51.384;0.040;2022-09-09T12:08:53;10.93;;;4.22;;
27706;SDS011;36332;51.384;0.040;2022-09-09T12:11:29;8.05;;;4.13;;
27706;SDS011;36332;51.384;0.040;2022-09-09T12:13:58;7.43;;;3.80;;
27706;SDS011;36332;51.384;0.040;2022-09-09T12:16:31;9.40;;;4.40;;
27706;SDS011;36332;51.384;0.040;2022-09-09T12:21:54;6.45;;;4.07;;
27706;SDS011;36332;51.384;0.040;2022-09-09T12:24:37;4.63;;;3.08;;
27706;SDS011;36332;51.384;0.040;2022-09-09T12:30:04;6.80;;;4.07;;
27706;SDS011;36332;51.384;0.040;2022-09-09T12:32:36;8.65;;;4.18;;
27706;SDS011;36332;51.384;0.040;2022-09-09T12:37:45;5.20;;;3.55;;
27706;SDS011;36332;51.384;0.040;2022-09-09T12:40:29;9.02;;;4.15;;
27706;SDS011;36332;51.384;0.040;2022-09-09T12:43:14;10.25;;;3.97;;
27706;SDS011;36332;51.384;0.040;2022-09-09T12:45:49;7.18;;;5.30;;
27706;SDS011;36332;51.384;0.040;2022-09-09T12:48:27;8.85;;;3.88;;
27706;SDS011;36332;51.384;0.040;2022-09-09T12:51:00;5.97;;;3.42;;
27706;SDS011;36332;51.384;0.040;2022-09-09T12:53:29;9.45;;;4.70;;
27706;SDS011;36332;51.384;0.040;2022-09-09T12:55:59;7.30;;;4.30;;
27706;SDS011;36332;51.384;0.040;2022-09-09T12:58:37;6.72;;;4.00;;
27706;SDS011;36332;51.384;0.040;2022-09-09T13:01:17;4.53;;;3.28;;
27706;SDS011;36332;51.384;0.040;2022-09-09T13:04:15;6.25;;;3.83;;
27706;SDS011;36332;51.384;0.040;2022-09-09T13:06:49;9.25;;;4.03;;
27706;SDS011;36332;51.384;0.040;2022-09-09T13:09:19;7.00;;;4.20;;
27706;SDS011;36332;51.384;0.040;2022-09-09T13:11:50;6.75;;;3.40;;
27706;SDS011;36332;51.384;0.040;2022-09-09T13:14:29;9.02;;;3.95;;
27706;SDS011;36332;51.384;0.040;2022-09-09T13:17:02;9.88;;;3.60;;
27706;SDS011;36332;51.384;0.040;2022-09-09T13:19:38;4.97;;;3.42;;
27706;SDS011;36332;51.384;0.040;2022-09-09T13:22:23;4.20;;;3.22;;
27706;SDS011;36332;51.384;0.040;2022-09-09T13:25:03;7.20;;;3.72;;
27706;SDS011;36332;51.384;0.040;2022-09-09T13:27:34;7.85;;;3.65;;
27706;SDS011;36332;51.384;0.040;2022-09-09T13:30:20;10.13;;;3.42;;
27706;SDS011;36332;51.384;0.040;2022-09-09T13:33:03;4.65;;;3.20;;
27706;SDS011;36332;51.384;0.040;2022-09-09T13:35:32;7.43;;;3.10;;
27706;SDS011;36332;51.384;0.040;2022-09-09T13:38:06;6.25;;;3.08;;
27706;SDS011;36332;51.384;0.040;2022-09-09T13:43:04;10.80;;;4.05;;
27706;SDS011;36332;51.384;0.040;2022-09-09T13:45:32;11.07;;;4.07;;
27706;SDS011;36332;51.384;0.040;2022-09-09T13:48:08;5.57;;;3.30;;
27706;SDS011;36332;51.384;0.040;2022-09-09T13:50:36;6.35;;;3.38;;
27706;SDS011;36332;51.384;0.040;2022-09-09T13:53:04;9.27;;;4.50;;
27706;SDS011;36332;51.384;0.040;2022-09-09T13:55:32;5.55;;;3.08;;
27706;SDS011;36332;51.384;0.040;2022-09-09T13:58:00;6.25;;;3.65;;
27706;SDS011;36332;51.384;0.040;2022-09-09T14:00:30;4.30;;;3.75;;
27706;SDS011;36332;51.384;0.040;2022-09-09T14:02:59;8.18;;;4.20;;
27706;SDS011;36332;51.384;0.040;2022-09-09T14:05:32;5.80;;;4.25;;
27706;SDS011;36332;51.384;0.040;2022-09-09T14:08:20;10.05;;;4.85;;
27706;SDS011;36332;51.384;0.040;2022-09-09T14:10:50;6.22;;;4.03;;
27706;SDS011;36332;51.384;0.040;2022-09-09T14:13:18;5.90;;;4.07;;
27706;SDS011;36332;51.384;0.040;2022-09-09T14:15:48;7.47;;;4.43;;
27706;SDS011;36332;51.384;0.040;2022-09-09T14:18:16;7.65;;;3.60;;
27706;SDS011;36332;51.384;0.040;2022-09-09T14:20:44;4.32;;;3.50;;
27706;SDS011;36332;51.384;0.040;2022-09-09T14:23:12;3.42;;;3.13;;
27706;SDS011;36332;51.384;0.040;2022-09-09T14:25:42;7.43;;;3.88;;
27706;SDS011;36332;51.384;0.040;2022-09-09T14:28:11;4.18;;;3.40;;
27706;SDS011;36332;51.384;0.040;2022-09-09T14:30:41;6.88;;;2.92;;
27706;SDS011;36332;51.384;0.040;2022-09-09T14:33:09;8.20;;;3.60;;
27706;SDS011;36332;51.384;0.040;2022-09-09T14:35:41;4.53;;;3.13;;
27706;SDS011;36332;51.384;0.040;2022-09-09T14:38:10;6.00;;;3.55;;
27706;SDS011;36332;51.384;0.040;2022-09-09T14:40:44;6.15;;;3.33;;
27706;SDS011;36332;51.384;0.040;2022-09-09T14:43:13;6.18;;;2.75;;
27706;SDS011;36332;51.384;0.040;2022-09-09T14:45:56;3.88;;;2.47;;
27706;SDS011;36332;51.384;0.040;2022-09-09T14:48:24;4.28;;;3.00;;
27706;SDS011;36332;51.384;0.040;2022-09-09T14:50:52;8.60;;;2.90;;
27706;SDS011;36332;51.384;0.040;2022-09-09T14:53:20;3.83;;;2.63;;
27706;SDS011;36332;51.384;0.040;2022-09-09T14:55:48;7.53;;;2.83;;
27706;SDS011;36332;51.384;0.040;2022-09-09T14:58:16;4.13;;;3.05;;
27706;SDS011;36332;51.384;0.040;2022-09-09T15:00:44;4.95;;;3.05;;
27706;SDS011;36332;51.384;0.040;2022-09-09T15:03:12;9.35;;;2.88;;
27706;SDS011;36332;51.384;0.040;2022-09-09T15:05:39;5.68;;;2.60;;
27706;SDS011;36332;51.384;0.040;2022-09-09T15:08:07;8.32;;;3.05;;
27706;SDS011;36332;51.384;0.040;2022-09-09T15:10:35;4.28;;;2.17;;
27706;SDS011;36332;51.384;0.040;2022-09-09T15:13:04;4.90;;;2.17;;
27706;SDS011;36332;51.384;0.040;2022-09-09T15:15:32;5.32;;;1.98;;
27706;SDS011;36332;51.384;0.040;2022-09-09T15:18:02;4.05;;;2.13;;
27706;SDS011;36332;51.384;0.040;2022-09-09T15:20:29;6.57;;;2.42;;
27706;SDS011;36332;51.384;0.040;2022-09-09T15:22:57;3.08;;;1.95;;
27706;SDS011;36332;51.384;0.040;2022-09-09T15:25:25;4.53;;;2.10;;
27706;SDS011;36332;51.384;0.040;2022-09-09T15:27:53;2.95;;;1.92;;
27706;SDS011;36332;51.384;0.040;2022-09-09T15:30:22;4.75;;;1.77;;
27706;SDS011;36332;51.384;0.040;2022-09-09T15:32:50;2.83;;;1.90;;
27706;SDS011;36332;51.384;0.040;2022-09-09T15:35:19;1.98;;;1.52;;
27706;SDS011;36332;51.384;0.040;2022-09-09T15:37:47;4.97;;;2.20;;
27706;SDS011;36332;51.384;0.040;2022-09-09T15:40:14;4.80;;;1.90;;
27706;SDS011;36332;51.384;0.040;2022-09-09T15:42:42;3.95;;;1.88;;
27706;SDS011;36332;51.384;0.040;2022-09-09T15:45:12;5.78;;;1.60;;
27706;SDS011;36332;51.384;0.040;2022-09-09T15:47:40;3.92;;;1.40;;
27706;SDS011;36332;51.384;0.040;2022-09-09T15:50:07;5.20;;;1.70;;
27706;SDS011;36332;51.384;0.040;2022-09-09T15:52:35;6.20;;;1.85;;
27706;SDS011;36332;51.384;0.040;2022-09-09T15:55:03;3.83;;;2.25;;
27706;SDS011;36332;51.384;0.040;2022-09-09T15:57:31;4.22;;;1.90;;
27706;SDS011;36332;51.384;0.040;2022-09-09T15:59:59;5.18;;;2.17;;
27706;SDS011;36332;51.384;0.040;2022-09-09T16:02:27;5.60;;;1.83;;
27706;SDS011;36332;51.384;0.040;2022-09-09T16:04:54;12.38;;;2.60;;
27706;SDS011;36332;51.384;0.040;2022-09-09T16:07:23;6.70;;;2.60;;
27706;SDS011;36332;51.384;0.040;2022-09-09T16:09:50;11.05;;;2.75;;
27706;SDS011;36332;51.384;0.040;2022-09-09T16:12:19;8.38;;;2.90;;
27706;SDS011;36332;51.384;0.040;2022-09-09T16:14:47;5.75;;;2.47;;
27706;SDS011;36332;51.384;0.040;2022-09-09T16:17:14;6.88;;;2.92;;
27706;SDS011;36332;51.384;0.040;2022-09-09T16:19:42;12.85;;;3.90;;
27706;SDS011;36332;51.384;0.040;2022-09-09T16:22:10;7.30;;;2.67;;
27706;SDS011;36332;51.384;0.040;2022-09-09T16:24:38;6.20;;;2.22;;
27706;SDS011;36332;51.384;0.040;2022-09-09T16:27:05;9.48;;;3.00;;
27706;SDS011;36332;51.384;0.040;2022-09-09T16:29:33;4.30;;;1.98;;
27706;SDS011;36332;51.384;0.040;2022-09-09T16:32:03;4.70;;;1.80;;
27706;SDS011;36332;51.384;0.040;2022-09-09T16:34:31;11.93;;;2.25;;
27706;SDS011;36332;51.384;0.040;2022-09-09T16:37:00;2.95;;;2.15;;
27706;SDS011;36332;51.384;0.040;2022-09-09T16:39:29;3.70;;;2.50;;
27706;SDS011;36332;51.384;0.040;2022-09-09T16:41:56;4.65;;;2.63;;
27706;SDS011;36332;51.384;0.040;2022-09-09T16:44:24;4.53;;;2.63;;
27706;SDS011;36332;51.384;0.040;2022-09-09T16:46:53;7.68;;;3.22;;
27706;SDS011;36332;51.384;0.040;2022-09-09T16:49:26;8.23;;;2.95;;
27706;SDS011;36332;51.384;0.040;2022-09-09T16:51:56;5.57;;;3.22;;
27706;SDS011;36332;51.384;0.040;2022-09-09T16:54:25;5.80;;;3.30;;
27706;SDS011;36332;51.384;0.040;2022-09-09T16:56:54;7.07;;;3.50;;
27706;SDS011;36332;51.384;0.040;2022-09-09T16:59:22;7.32;;;3.70;;
27706;SDS011;36332;51.384;0.040;2022-09-09T17:01:51;6.95;;;3.78;;
27706;SDS011;36332;51.384;0.040;2022-09-09T17:04:20;5.90;;;3.67;;
27706;SDS011;36332;51.384;0.040;2022-09-09T17:06:52;6.75;;;4.65;;
27706;SDS011;36332;51.384;0.040;2022-09-09T17:09:21;5.68;;;3.70;;
27706;SDS011;36332;51.384;0.040;2022-09-09T17:11:49;7.32;;;4.30;;
27706;SDS011;36332;51.384;0.040;2022-09-09T17:14:19;7.15;;;4.05;;
27706;SDS011;36332;51.384;0.040;2022-09-09T17:16:48;10.50;;;4.00;;